CYYJ/YYJ METAR and TAF weather

Enter ICAO airport designator
Station Type Date Time Source
CYYJ METAR 2019/12/14 06:00 UTC NOAA

CYYJ 140600Z 24007KT 20SM BKN039 03/03 A3000 RMK SC7 SLP162


Station Type Date Time Source
CYYJ Decoded METAR 2019/12/14 06:00 UTC NOAA

Victoria Int. Airport, B. C., Canada (CYYJ) 48-39N 123-26W 19M
Dec 14, 2019 - 01:00 AM EST / 2019.12.14 0600 UTC
Wind: from the WSW (240 degrees) at 8 MPH (7 KT):0
Visibility: 20 mile(s):0
Sky conditions: mostly cloudy
Temperature: 37 F (3 C)
Dew Point: 37 F (3 C)
Relative Humidity: 100%
Pressure (altimeter): 30 in. Hg (1015 hPa)
ob: CYYJ 140600Z 24007KT 20SM BKN039 03/03 A3000 RMK SC7 SLP162
cycle: 6

Station Type Date Time Source
CYYJ TAF 2019/12/14 06:45 UTC NOAA

TAF TAF CYYJ 140542Z 1406/1506 24006KT P6SM FEW002 SCT040 PROB30 1406/1409 1/2SM FG BKN002
FM140900 VRB03KT P6SM SCT012
TEMPO 1409/1418 2SM BR BKN012 PROB40 1409/1418 1/4SM FG BKN001
FM141800 VRB03KT P6SM SCT012 BKN025
TEMPO 1418/1506 5SM -SHRA BR SCT006 BKN012 OVC025 PROB30 1418/1506 OVC006
RMK NXT FCST BY 141200Z

Example: see airport list